Terminal Aerodrome Forecast
Issued by NWS Twin Cities, MN

Home | Current Version | Previous Version | Graphics & Text | Print | Product List | Glossary On
Versions: 1 2 3 4 5 6 7 8 9 10 11 12 13 14 15 16 17 18 19 20 21 22 23 24 25 26 27 28 29 30
000
FTUS43 KMPX 282339
TAFMSP
TAF
KMSP 282339Z 2900/3006 11007KT 4SM BR OVC012
      TEMPO 2900/2902 2SM BR OVC008
     FM290200 VRB04KT 3SM BR OVC006
      TEMPO 2902/2906 2SM -FZDZSN BR OVC004
     FM290600 32008KT 5SM -SHSN BR OVC008
     FM290900 32014G23KT P6SM OVC012
     FM291400 32019G26KT P6SM OVC020
     FM292100 32014G20KT P6SM SCT025=

USA.gov is the U.S. government's official web portal to all federal, state and local government web resources and services.